Time;durP1;ratioP1;P1;durP2;ratioP2;P2;SDS_P1;SDS_P2;PMS_P1;PMS_P2;Temp;Humidity;BMP_temperature;BMP_pressure;BME280_temperature;BME280_humidity;BME280_pressure;Samples;Min_cycle;Max_cycle;Signal;HPM_P1;HPM_P2
2023/08/09 00:00:53;;;;;;;5.63;2.58;;;14.90;99.90;;;-141.84;69.77;20533.34;5064523;28;20262;-62
2023/08/09 00:03:22;;;;;;;4.78;2.78;;;14.90;99.90;;;-141.84;69.20;20537.44;5063702;28;20224;-63
2023/08/09 00:05:51;;;;;;;3.35;2.53;;;14.90;99.90;;;-141.84;69.04;20531.31;5057270;28;20704;-62
2023/08/09 00:08:19;;;;;;;2.78;2.47;;;15.00;99.90;;;-141.84;69.65;20533.34;5036075;28;20245;-62
2023/08/09 00:10:48;;;;;;;3.35;2.35;;;14.90;99.90;;;-141.84;69.89;20504.91;5044179;28;20321;-63
2023/08/09 00:13:16;;;;;;;4.38;2.60;;;14.90;99.90;;;-141.84;69.93;20527.25;5043589;28;20211;-62
2023/08/09 00:15:45;;;;;;;3.35;2.40;;;14.90;99.90;;;-141.84;69.57;20535.41;5044752;28;20317;-63
2023/08/09 00:18:13;;;;;;;4.85;2.30;;;14.90;99.90;;;-141.84;69.67;20557.75;5043080;28;20240;-63
2023/08/09 00:20:42;;;;;;;3.50;2.10;;;14.90;99.90;;;-141.84;69.94;20502.88;5036971;28;20705;-63
2023/08/09 00:23:13;;;;;;;3.17;2.42;;;14.90;99.90;;;-141.84;70.82;20517.09;5043241;28;20329;-63
2023/08/09 00:25:43;;;;;;;4.63;2.30;;;14.80;99.90;;;-141.84;70.67;20533.34;5036263;28;20226;-62
2023/08/09 00:28:11;;;;;;;2.65;2.42;;;14.80;99.90;;;-141.84;69.66;20508.97;5036477;28;20297;-64
2023/08/09 00:30:39;;;;;;;6.25;2.92;;;14.80;99.90;;;-141.84;69.38;20543.53;5041062;28;20700;-62
2023/08/09 00:33:08;;;;;;;4.85;2.58;;;14.80;99.90;;;-141.84;69.87;20519.13;5043454;28;20253;-63
2023/08/09 00:35:36;;;;;;;4.30;2.83;;;14.80;99.90;;;-141.84;69.87;20517.09;5042491;28;20229;-62
2023/08/09 00:38:04;;;;;;;2.85;2.50;;;14.90;99.90;;;-141.84;69.98;20508.97;5043134;28;20316;-62
2023/08/09 00:40:34;;;;;;;5.68;2.55;;;14.90;99.90;;;-141.84;70.22;20547.59;5035333;28;20257;-61
2023/08/09 00:43:02;;;;;;;3.80;2.38;;;14.90;99.90;;;-141.84;70.78;20482.53;5043265;28;20738;-64
2023/08/09 00:45:32;;;;;;;3.63;2.45;;;14.90;99.90;;;-141.84;71.32;20500.84;5059417;28;20298;-62
2023/08/09 00:48:01;;;;;;;2.50;2.30;;;14.90;99.90;;;-141.84;70.83;20539.47;5063108;28;20240;-62
2023/08/09 00:50:29;;;;;;;3.22;2.40;;;14.90;99.90;;;-141.84;70.54;20523.19;5054232;28;20240;-62
2023/08/09 00:52:59;;;;;;;5.78;2.45;;;14.90;99.90;;;-141.84;70.76;20561.81;5063122;28;20716;-62
2023/08/09 00:55:27;;;;;;;4.32;2.63;;;14.90;99.90;;;-141.84;71.52;20517.09;5049736;28;20229;-62
2023/08/09 00:57:57;;;;;;;5.38;2.30;;;14.90;99.90;;;-141.84;72.84;20535.41;5036677;28;20213;-62
2023/08/09 01:00:25;;;;;;;3.70;2.50;;;14.90;99.90;;;-141.84;73.51;20452.06;5054439;28;20588;-62
2023/08/09 01:02:54;;;;;;;2.20;2.00;;;14.90;99.90;;;-141.84;74.05;20464.25;5062490;28;20650;-62
2023/08/09 01:05:27;;;;;;;3.97;2.20;;;14.80;99.90;;;-141.84;74.75;20447.97;5060460;28;20232;-62
2023/08/09 01:08:04;;;;;;;2.60;2.40;;;14.80;99.90;;;-141.84;75.42;20441.88;5043083;28;20235;-62
2023/08/09 01:10:42;;;;;;;2.47;2.20;;;14.70;99.90;;;-141.84;76.05;20441.88;5035171;28;20306;-62
2023/08/09 01:13:19;;;;;;;3.00;2.25;;;14.70;99.90;;;-141.84;76.37;20437.81;5042603;28;20221;-62
2023/08/09 01:15:49;;;;;;;2.85;2.50;;;14.80;99.90;;;-141.84;76.51;20443.91;5042896;28;20295;-62
2023/08/09 01:18:19;;;;;;;3.60;2.70;;;14.60;99.90;;;-141.84;76.67;20425.63;5037156;28;20672;-64
2023/08/09 01:20:50;;;;;;;2.97;2.50;;;14.60;99.90;;;-141.84;77.15;20450.03;5041644;28;20264;-62
2023/08/09 01:23:21;;;;;;;2.97;2.53;;;14.60;99.90;;;-141.84;78.01;20435.78;5042458;28;20225;-62
2023/08/09 01:25:50;;;;;;;5.20;2.80;;;14.60;99.90;;;-141.84;78.98;20425.63;5032742;28;20612;-62
2023/08/09 01:28:19;;;;;;;4.30;2.60;;;14.40;99.90;;;-141.84;79.83;20374.81;5029856;28;20670;-62
2023/08/09 01:30:47;;;;;;;3.50;2.50;;;14.40;99.90;;;-141.84;80.57;20326.03;5048034;28;20673;-62
2023/08/09 01:33:15;;;;;;;3.08;2.80;;;14.40;99.90;;;-141.84;81.16;20348.38;5042838;28;20240;-61
2023/08/09 01:35:54;;;;;;;4.72;2.95;;;14.30;99.90;;;-141.84;81.79;20378.88;5041794;28;20320;-62
2023/08/09 01:38:30;;;;;;;3.45;2.95;;;14.20;99.90;;;-141.84;82.14;20342.28;5035116;28;20315;-62
2023/08/09 01:41:02;;;;;;;4.30;2.90;;;14.20;99.90;;;-141.84;82.68;20336.19;5052711;28;20267;-62
2023/08/09 01:43:31;;;;;;;3.63;2.78;;;14.20;99.90;;;-141.84;83.09;20317.91;5062330;28;20235;-63
2023/08/09 01:46:02;;;;;;;3.60;3.25;;;14.10;99.90;;;-141.84;83.08;20334.16;5063121;28;20328;-61
2023/08/09 01:48:30;;;;;;;3.95;3.22;;;14.10;99.90;;;-141.84;83.39;20315.88;5055395;28;20646;-62
2023/08/09 01:50:59;;;;;;;5.85;3.85;;;14.10;99.90;;;-141.84;83.61;20303.66;5061274;28;20793;-62
2023/08/09 01:53:27;;;;;;;3.72;2.92;;;14.10;99.90;;;-141.84;83.63;20317.91;5062926;28;20239;-62
2023/08/09 01:55:55;;;;;;;3.65;3.15;;;14.10;99.90;;;-141.84;83.92;20277.25;5041772;28;20276;-62
2023/08/09 01:58:25;;;;;;;3.40;3.10;;;14.10;99.90;;;-141.84;84.21;20313.84;5034955;28;20274;-62
2023/08/09 02:00:54;;;;;;;3.42;2.90;;;14.10;99.90;;;-141.84;84.44;20309.75;5062884;28;20632;-62
2023/08/09 02:03:22;;;;;;;4.00;2.92;;;14.10;99.90;;;-141.84;84.40;20311.78;5063727;28;20225;-62
2023/08/09 02:05:50;;;;;;;4.65;3.03;;;14.10;99.90;;;-141.84;84.32;20289.44;5060256;28;20233;-62
2023/08/09 02:08:18;;;;;;;5.30;2.95;;;14.10;99.90;;;-141.84;84.27;20315.88;5039032;28;20290;-62
2023/08/09 02:10:47;;;;;;;4.93;2.65;;;14.10;99.90;;;-141.84;84.62;20309.75;5046553;28;20244;-62
2023/08/09 02:13:15;;;;;;;3.35;2.88;;;14.10;99.90;;;-141.84;85.04;20275.22;5046277;28;20225;-62
2023/08/09 02:15:45;;;;;;;4.18;2.88;;;14.00;99.90;;;-141.84;85.16;20269.13;5046668;28;20210;-61
2023/08/09 02:18:13;;;;;;;4.90;3.05;;;14.00;99.90;;;-141.84;85.59;20271.16;5046038;28;20312;-62
2023/08/09 02:20:41;;;;;;;3.30;3.00;;;14.00;99.90;;;-141.84;85.72;20277.25;5038903;28;20272;-62
2023/08/09 02:23:10;;;;;;;2.88;2.63;;;14.00;99.90;;;-141.84;86.17;20287.41;5045316;28;20709;-65
2023/08/09 02:25:38;;;;;;;3.50;2.95;;;13.90;99.90;;;-141.84;86.48;20265.03;5038026;28;20774;-66
2023/08/09 02:28:08;;;;;;;3.58;3.17;;;13.90;99.90;;;-141.84;86.46;20311.78;5038278;28;20454;-66
2023/08/09 02:30:36;;;;;;;3.63;2.75;;;13.90;99.90;;;-141.84;86.51;20248.78;5043686;28;20259;-66
2023/08/09 02:33:06;;;;;;;5.50;3.17;;;13.80;99.90;;;-141.84;86.89;20250.81;5045804;28;20237;-66
2023/08/09 02:35:54;;;;;;;4.93;3.42;;;13.80;99.90;;;-141.84;87.19;20260.97;5045526;28;20240;-65
2023/08/09 02:38:24;;;;;;;5.25;3.05;;;13.80;99.90;;;-141.84;87.46;20256.91;5057534;28;20278;-65
2023/08/09 02:40:53;;;;;;;3.55;3.03;;;13.80;99.90;;;-141.84;87.65;20267.09;5065991;28;20268;-65
2023/08/09 02:43:24;;;;;;;4.38;2.95;;;13.80;99.90;;;-141.84;87.95;20244.72;5065607;28;20262;-66
2023/08/09 02:45:54;;;;;;;3.97;3.50;;;13.80;99.90;;;-141.84;88.06;20269.13;5066229;28;20234;-67
2023/08/09 02:48:24;;;;;;;3.92;3.17;;;13.80;99.90;;;-141.84;88.26;20246.75;5056931;28;20220;-66
2023/08/09 02:50:52;;;;;;;4.28;3.30;;;13.80;99.90;;;-141.84;88.68;20220.34;5065352;28;20336;-66
2023/08/09 02:53:20;;;;;;;4.93;3.40;;;13.80;99.90;;;-141.84;88.90;20240.66;5065048;28;20327;-66
2023/08/09 02:55:49;;;;;;;5.68;3.22;;;13.80;99.90;;;-141.84;88.60;20256.91;5047014;28;20365;-67
2023/08/09 02:58:17;;;;;;;6.15;3.70;;;13.90;99.90;;;-141.84;88.45;20263.00;5042054;28;20201;-66
2023/08/09 03:00:45;;;;;;;3.75;2.85;;;14.10;99.90;;;-141.84;88.08;20248.78;5062521;28;20627;-67
2023/08/09 03:03:14;;;;;;;5.13;3.25;;;13.90;99.90;;;-141.84;88.08;20258.94;5064825;28;20311;-66
2023/08/09 03:05:49;;;;;;;3.72;3.40;;;13.90;99.90;;;-141.84;88.30;20242.69;5059661;28;20232;-66
2023/08/09 03:08:18;;;;;;;3.97;3.33;;;;;;;-141.84;88.64;20271.16;5041229;28;20221;-66
2023/08/09 03:10:46;;;;;;;4.03;3.20;;;13.80;99.90;;;-141.84;88.64;20228.47;5044893;28;20662;-65
2023/08/09 03:13:17;;;;;;;3.92;3.53;;;13.80;99.90;;;-141.84;89.00;20234.56;5044804;28;20708;-65
2023/08/09 03:15:45;;;;;;;4.28;3.53;;;13.80;99.90;;;-141.84;89.26;20206.09;5044607;28;20205;-65
2023/08/09 03:18:14;;;;;;;3.88;3.58;;;13.80;99.90;;;-141.84;89.65;20246.75;5044196;28;20355;-66
2023/08/09 03:20:42;;;;;;;4.57;3.55;;;13.80;99.90;;;-141.84;89.87;20216.25;5040407;28;20320;-65
2023/08/09 03:23:12;;;;;;;4.25;3.67;;;13.70;99.90;;;-141.84;89.67;20208.13;5044422;28;20328;-66
2023/08/09 03:25:40;;;;;;;4.03;3.70;;;13.70;99.90;;;-141.84;89.97;20226.44;5036892;28;20317;-66
2023/08/09 03:28:08;;;;;;;4.88;3.90;;;13.70;99.90;;;-141.84;90.20;20183.75;5037317;28;20304;-65
2023/08/09 03:30:36;;;;;;;4.45;3.67;;;13.60;99.90;;;-141.84;90.55;20200.00;5031735;28;20399;-67
2023/08/09 03:33:05;;;;;;;4.05;3.65;;;13.60;99.90;;;-141.84;90.83;20232.53;5037415;28;20780;-65
2023/08/09 03:35:33;;;;;;;4.50;3.50;;;13.50;99.90;;;-141.84;90.96;20167.47;5064431;28;20663;-65
2023/08/09 03:38:02;;;;;;;4.65;3.78;;;13.50;99.90;;;-141.84;91.21;20155.28;5063989;28;20789;-65
2023/08/09 03:40:31;;;;;;;3.95;3.53;;;13.50;99.90;;;-141.84;91.53;20208.13;5056639;28;20232;-66
2023/08/09 03:42:59;;;;;;;4.15;3.53;;;13.50;99.90;;;-141.84;91.78;20145.13;5064524;28;20672;-66
2023/08/09 03:45:28;;;;;;;5.32;4.32;;;13.50;99.90;;;-141.84;91.76;20145.13;5065161;28;20221;-66
2023/08/09 03:47:56;;;;;;;4.68;4.10;;;13.50;99.90;;;-141.84;91.93;20195.94;5063697;28;20232;-65
2023/08/09 03:50:25;;;;;;;5.05;4.00;;;13.50;99.90;;;-141.84;92.00;20195.94;5056101;28;20244;-65
2023/08/09 03:52:54;;;;;;;4.93;4.18;;;13.40;99.90;;;-141.84;92.06;20214.22;5063878;28;20294;-67
2023/08/09 03:55:22;;;;;;;4.88;4.05;;;13.50;99.90;;;-141.84;92.00;20212.19;5057579;28;20287;-66
2023/08/09 03:57:52;;;;;;;5.95;4.28;;;13.40;99.90;;;-141.84;92.20;20171.56;5044779;28;20812;-66
2023/08/09 04:00:22;;;;;;;4.57;4.07;;;13.40;99.90;;;-141.84;92.60;20163.41;5056322;28;20236;-67
2023/08/09 04:02:51;;;;;;;4.53;4.03;;;13.40;99.90;;;-141.84;92.92;20155.28;5062759;28;20270;-65
2023/08/09 04:05:19;;;;;;;4.57;3.95;;;13.30;99.90;;;-141.84;93.16;20185.78;5062440;28;20224;-66
2023/08/09 04:07:48;;;;;;;5.30;4.80;;;13.40;99.90;;;-141.84;93.19;20157.31;5043828;28;20276;-66
2023/08/09 04:10:17;;;;;;;5.65;4.47;;;13.50;99.90;;;-141.84;93.44;20163.41;5043125;28;20205;-66
2023/08/09 04:12:45;;;;;;;5.65;4.38;;;13.50;99.90;;;-141.84;93.67;20163.41;5043786;28;20252;-66
2023/08/09 04:15:14;;;;;;;5.75;5.15;;;13.40;99.90;;;-141.84;93.71;20163.41;5043378;28;20232;-66
2023/08/09 04:17:43;;;;;;;6.10;4.65;;;13.50;99.90;;;-141.84;93.80;20179.69;5043318;28;20233;-65
2023/08/09 04:20:12;;;;;;;5.03;4.53;;;13.40;99.90;;;-141.84;93.85;20153.25;5043534;28;20233;-67
2023/08/09 04:22:40;;;;;;;7.03;5.03;;;13.40;99.90;;;-141.84;93.88;20147.16;5035678;28;20271;-66
2023/08/09 04:25:10;;;;;;;6.43;4.72;;;13.40;99.90;;;-141.84;93.95;20161.38;5055320;28;20206;-65
2023/08/09 04:27:40;;;;;;;6.60;5.18;;;13.40;99.90;;;-141.84;94.17;20177.66;5032405;28;20208;-66
2023/08/09 04:30:10;;;;;;;5.53;5.03;;;13.40;99.90;;;-141.84;93.85;20163.41;5054991;28;20236;-66
2023/08/09 04:32:40;;;;;;;6.15;5.22;;;13.40;99.90;;;-141.84;94.23;20134.97;5035301;28;20237;-65
2023/08/09 04:35:09;;;;;;;6.40;5.22;;;13.40;99.90;;;-141.84;93.94;20143.09;5043220;28;20233;-66
2023/08/09 04:37:38;;;;;;;6.32;5.10;;;13.50;99.90;;;-141.84;94.04;20141.06;5038476;28;20229;-65
2023/08/09 04:40:10;;;;;;;5.63;4.95;;;13.40;99.90;;;-141.84;94.24;20147.16;5023003;28;20206;-64
2023/08/09 04:42:40;;;;;;;5.73;5.23;;;13.40;99.90;;;-141.84;94.51;20169.53;5015630;28;20875;-66
2023/08/09 04:45:10;;;;;;;6.10;5.13;;;13.40;99.90;;;-141.84;94.80;20155.28;5023453;28;20234;-66
2023/08/09 04:47:40;;;;;;;6.25;5.40;;;13.50;99.90;;;-141.84;94.69;20173.59;5026011;28;20261;-66
2023/08/09 04:50:09;;;;;;;6.10;5.60;;;13.50;99.90;;;-141.84;94.94;20163.41;5047508;28;20290;-67
2023/08/09 04:52:38;;;;;;;6.75;5.63;;;13.50;99.90;;;-141.84;95.24;20165.44;5055665;28;20285;-66
2023/08/09 04:55:08;;;;;;;7.95;6.38;;;13.60;99.90;;;-141.84;95.40;20159.34;5059282;28;20783;-65
2023/08/09 04:57:36;;;;;;;6.82;5.80;;;13.60;99.90;;;-141.84;94.88;20185.78;5052227;28;20291;-65
2023/08/09 05:00:09;;;;;;;7.00;5.80;;;13.70;99.90;;;-141.84;94.53;20163.41;5062541;28;20285;-67
2023/08/09 05:02:40;;;;;;;6.38;5.75;;;13.70;99.90;;;-141.84;94.38;20189.84;5055237;28;24496;-65
2023/08/09 05:05:10;;;;;;;7.15;6.38;;;13.70;99.90;;;-141.84;94.42;20193.91;5063186;28;20225;-66
2023/08/09 05:07:39;;;;;;;6.95;6.25;;;13.70;99.90;;;-141.84;94.46;20175.63;5043301;28;20712;-65
2023/08/09 05:10:10;;;;;;;7.85;6.60;;;13.70;99.90;;;-141.84;94.38;20173.59;5041897;28;20239;-67
2023/08/09 05:12:38;;;;;;;9.18;6.85;;;13.70;99.90;;;-141.84;94.10;20171.56;5035719;28;20287;-66
2023/08/09 05:15:08;;;;;;;8.50;6.47;;;13.80;99.90;;;-141.84;93.39;20175.63;5042322;28;20225;-66
2023/08/09 05:17:37;;;;;;;7.80;6.90;;;13.80;99.90;;;-141.84;93.52;20149.19;5042644;28;20232;-66
2023/08/09 05:20:08;;;;;;;7.90;7.10;;;13.80;99.90;;;-141.84;92.70;20244.72;5055330;28;20236;-66
2023/08/09 05:22:36;;;;;;;7.82;7.03;;;13.80;99.90;;;-141.84;92.70;20195.94;5055108;28;20335;-66
2023/08/09 05:25:05;;;;;;;8.00;6.95;;;13.90;99.90;;;-141.84;92.84;20234.56;5062358;28;20342;-66
2023/08/09 05:27:34;;;;;;;8.43;7.25;;;13.90;99.90;;;-141.84;93.21;20218.31;5062981;28;20225;-65
2023/08/09 05:30:04;;;;;;;7.85;7.05;;;13.90;99.90;;;-141.84;93.15;20252.84;5062528;28;20240;-67
2023/08/09 05:32:34;;;;;;;7.10;6.20;;;14.10;99.90;;;-141.84;92.26;20260.97;5055076;28;20224;-66
2023/08/09 05:35:02;;;;;;;6.55;5.95;;;14.20;99.90;;;-141.84;90.77;20311.78;5062861;28;20310;-65
2023/08/09 05:37:32;;;;;;;7.63;6.88;;;14.30;99.90;;;-141.84;89.75;20315.88;5062845;28;20255;-66
2023/08/09 05:40:00;;;;;;;7.10;6.10;;;14.40;99.90;;;-141.84;88.72;20354.47;5066672;28;20291;-66
2023/08/09 05:42:28;;;;;;;4.90;4.40;;;14.50;99.90;;;-141.84;86.08;20299.59;5058473;28;20238;-66
2023/08/09 05:44:59;;;;;;;3.80;3.40;;;14.60;99.90;;;-141.84;83.63;20364.66;5066680;28;20268;-66
2023/08/09 05:47:27;;;;;;;3.85;3.50;;;14.70;99.90;;;-141.84;83.15;20338.22;5066805;28;20236;-66
2023/08/09 05:49:55;;;;;;;4.18;3.30;;;14.60;99.90;;;-141.84;83.10;20344.31;5066564;28;20289;-66
2023/08/09 05:52:23;;;;;;;4.40;3.47;;;14.60;99.90;;;-141.84;83.76;20348.38;5059462;28;20320;-66
2023/08/09 05:54:53;;;;;;;3.65;3.25;;;14.70;99.90;;;-141.84;84.14;20334.16;5065788;28;20224;-66
2023/08/09 05:57:21;;;;;;;3.10;2.83;;;14.80;99.90;;;-141.84;84.26;20407.34;5052508;28;20224;-67
2023/08/09 05:59:49;;;;;;;3.85;2.70;;;14.90;99.90;;;-141.84;82.84;20435.78;5066390;28;20314;-67
2023/08/09 06:02:18;;;;;;;2.85;2.50;;;;;;;-141.84;82.30;20506.94;5062277;28;20244;-65
2023/08/09 06:04:46;;;;;;;2.55;2.30;;;15.40;99.90;;;-141.84;81.07;20508.97;5064061;28;20723;-67
2023/08/09 06:07:15;;;;;;;2.40;2.20;;;15.60;99.90;;;-141.84;81.04;20502.88;5066525;28;20209;-66
2023/08/09 06:09:44;;;;;;;3.20;2.25;;;15.60;99.90;;;-141.84;81.18;20498.81;5065989;28;20246;-66
2023/08/09 06:12:13;;;;;;;2.78;2.42;;;15.60;99.90;;;-141.84;81.22;20508.97;5066346;28;20312;-67
2023/08/09 06:14:42;;;;;;;2.38;2.03;;;15.50;99.90;;;-141.84;80.28;20488.63;5060069;28;20290;-67
2023/08/09 06:17:10;;;;;;;2.42;1.83;;;15.50;99.90;;;-141.84;79.93;20506.94;5065126;28;20232;-66
2023/08/09 06:19:38;;;;;;;2.58;1.98;;;15.60;99.90;;;-141.84;80.04;20504.91;5063853;28;20587;-66
2023/08/09 06:22:07;;;;;;;2.83;2.22;;;15.60;99.90;;;-141.84;80.64;20504.91;5065301;28;20747;-66
2023/08/09 06:24:35;;;;;;;1.70;1.60;;;15.60;99.90;;;-141.84;78.41;20508.97;5057923;28;20208;-66
2023/08/09 06:27:04;;;;;;;2.33;1.88;;;15.60;99.90;;;-141.84;77.66;20504.91;5057044;28;20718;-67
2023/08/09 06:29:34;;;;;;;2.28;1.60;;;15.60;99.90;;;-141.84;77.30;20569.94;5064715;28;20301;-66
2023/08/09 06:32:02;;;;;;;1.95;1.50;;;15.80;99.90;;;-141.84;75.45;20608.56;5065411;28;20304;-66
2023/08/09 06:34:30;;;;;;;3.58;1.75;;;16.00;99.90;;;-141.84;71.73;20659.38;5058092;28;20268;-67
2023/08/09 06:36:59;;;;;;;2.22;1.30;;;16.00;99.90;;;-141.84;70.06;20637.03;5065789;28;20652;-68
2023/08/09 06:39:27;;;;;;;1.50;1.40;;;15.90;99.90;;;-141.84;70.83;20600.44;5065389;28;20217;-67
2023/08/09 06:41:56;;;;;;;1.75;1.60;;;15.80;99.90;;;-141.84;72.48;20612.63;5064954;28;20305;-67
2023/08/09 06:44:24;;;;;;;2.17;1.30;;;15.90;99.90;;;-141.84;72.55;20632.97;5057139;28;20244;-67
2023/08/09 06:46:54;;;;;;;1.60;1.50;;;16.10;99.90;;;-141.84;71.92;20647.19;5064233;28;20675;-66
2023/08/09 06:49:23;;;;;;;1.63;1.33;;;16.20;99.90;;;-141.84;71.65;20700.03;5065011;28;20294;-67
2023/08/09 06:51:51;;;;;;;1.48;1.35;;;16.40;99.90;;;-141.84;72.32;20742.75;5063204;28;20224;-67
2023/08/09 06:54:19;;;;;;;2.88;1.50;;;16.50;99.90;;;-141.84;69.01;20791.53;5051423;28;20229;-66
2023/08/09 06:56:52;;;;;;;2.60;1.55;;;16.60;99.90;;;-141.84;68.91;20876.91;5062535;28;20251;-66
2023/08/09 06:59:21;;;;;;;1.60;1.50;;;17.00;99.90;;;-141.84;68.08;21000.91;5064877;28;20575;-67
2023/08/09 07:01:49;;;;;;;3.17;1.80;;;17.30;99.90;;;-141.84;68.22;20986.69;5064283;28;20228;-67
2023/08/09 07:04:19;;;;;;;1.92;1.83;;;17.50;99.90;;;-141.84;68.29;20944.00;5061583;28;20564;-66
2023/08/09 07:06:48;;;;;;;1.92;1.73;;;17.50;99.90;;;-141.84;66.51;20958.22;5065284;28;20228;-67
2023/08/09 07:09:18;;;;;;;2.00;1.52;;;17.30;99.90;;;-141.84;67.76;20915.53;5064662;28;20232;-66
2023/08/09 07:11:47;;;;;;;1.77;1.30;;;17.20;99.90;;;-141.84;67.34;20866.75;5064736;28;20224;-66
2023/08/09 07:14:15;;;;;;;1.60;1.50;;;17.00;99.90;;;-141.84;68.68;20824.06;5065025;28;20781;-67
2023/08/09 07:16:43;;;;;;;1.50;1.40;;;16.80;99.90;;;-141.84;69.73;20783.41;5064207;28;20251;-66
2023/08/09 07:19:11;;;;;;;1.98;1.60;;;16.70;99.90;;;-141.84;69.07;20744.78;5064428;28;20201;-68
2023/08/09 07:21:41;;;;;;;1.40;1.30;;;16.50;99.90;;;-141.84;67.57;20805.75;5065082;28;20667;-67
2023/08/09 07:24:09;;;;;;;1.98;1.77;;;16.50;99.90;;;-141.84;66.50;20801.69;5064496;28;20237;-66
2023/08/09 07:26:38;;;;;;;1.65;1.52;;;16.60;99.90;;;-141.84;67.73;20828.13;5040945;28;20279;-66
2023/08/09 07:29:06;;;;;;;2.03;1.60;;;16.60;99.90;;;-141.84;66.33;20793.56;5065044;28;20719;-67
2023/08/09 07:31:35;;;;;;;1.60;1.40;;;16.50;99.90;;;-141.84;67.63;20789.50;5063920;28;20312;-67
2023/08/09 07:34:04;;;;;;;1.48;1.38;;;16.40;99.90;;;-141.84;66.63;20787.47;5064762;28;20710;-67
2023/08/09 07:36:32;;;;;;;1.90;1.75;;;16.50;99.90;;;-141.84;63.96;20852.50;5056850;28;20311;-66
2023/08/09 07:39:03;;;;;;;4.40;1.50;;;16.50;99.90;;;-141.84;65.25;20805.75;5064138;28;20464;-67
2023/08/09 07:41:32;;;;;;;1.75;1.33;;;16.50;99.90;;;-141.84;65.29;20848.44;5064022;28;20688;-68
2023/08/09 07:44:00;;;;;;;1.55;1.25;;;16.50;99.90;;;-141.84;64.01;20895.19;5063544;28;20216;-66
2023/08/09 07:46:29;;;;;;;1.85;1.30;;;16.70;99.90;;;-141.84;62.37;20962.28;5055322;28;20248;-67
2023/08/09 07:49:00;;;;;;;3.08;1.27;;;16.90;99.90;;;-141.84;62.63;21004.97;5064155;28;20697;-67
2023/08/09 07:51:29;;;;;;;2.80;1.40;;;17.00;99.90;;;-141.84;63.38;21055.81;5061692;28;20224;-67
2023/08/09 07:53:57;;;;;;;2.92;1.05;;;17.30;99.90;;;-141.84;59.26;21112.72;5054115;28;20228;-67
2023/08/09 07:56:26;;;;;;;3.55;1.33;;;17.50;99.90;;;-141.84;60.12;21108.66;5041805;28;20321;-66
2023/08/09 07:58:55;;;;;;;2.03;1.20;;;17.50;99.90;;;-141.84;60.36;21149.31;5054227;28;20713;-66
2023/08/09 08:01:23;;;;;;;2.47;1.55;;;17.50;99.90;;;-141.84;60.03;21104.59;5056726;28;20732;-67
2023/08/09 08:03:51;;;;;;;1.98;1.10;;;17.50;99.90;;;-141.84;56.72;21137.13;5053886;28;20201;-66
2023/08/09 08:06:20;;;;;;;4.10;1.50;;;17.50;99.90;;;-141.84;56.87;21169.66;5044662;28;20688;-65
2023/08/09 08:08:48;;;;;;;2.70;1.50;;;17.60;99.90;;;-141.84;58.05;21212.34;5057899;28;20228;-67
2023/08/09 08:11:16;;;;;;;1.30;1.13;;;17.60;99.90;;;-141.84;60.66;21155.44;5057300;28;20602;-66
2023/08/09 08:13:46;;;;;;;2.00;1.20;;;17.60;99.90;;;-141.84;59.83;21122.91;5051818;28;20228;-66
2023/08/09 08:16:14;;;;;;;1.98;1.27;;;17.50;99.90;;;-141.84;62.02;21086.31;5052267;28;20688;-65
2023/08/09 08:18:42;;;;;;;4.15;1.50;;;17.60;99.90;;;-141.84;59.15;21165.59;5048501;28;20731;-65
2023/08/09 08:21:11;;;;;;;1.95;1.33;;;17.70;99.90;;;-141.84;59.41;21114.75;5054762;28;20220;-66
2023/08/09 08:23:39;;;;;;;2.25;1.20;;;17.60;99.90;;;-141.84;60.00;21084.28;5042080;28;20280;-66
2023/08/09 08:26:08;;;;;;;2.92;1.40;;;17.60;99.90;;;-141.84;57.87;21151.34;5034070;28;20445;-66
2023/08/09 08:28:36;;;;;;;1.50;1.15;;;17.50;99.90;;;-141.84;57.29;21139.16;5038382;28;20511;-67
2023/08/09 08:31:07;;;;;;;2.30;1.20;;;17.50;99.90;;;-141.84;55.99;21175.75;5052372;28;20607;-66
2023/08/09 08:33:36;;;;;;;4.70;1.40;;;17.70;99.90;;;-141.84;53.52;21281.47;5043408;28;20584;-66
2023/08/09 08:36:05;;;;;;;2.45;1.30;;;17.90;99.90;;;-141.84;55.97;21261.16;5042744;28;20316;-66
2023/08/09 08:38:54;;;;;;;1.48;1.15;;;18.00;99.90;;;-141.84;57.48;21246.91;5043191;28;20229;-66
2023/08/09 08:41:22;;;;;;;1.45;1.13;;;18.10;99.90;;;-141.84;56.99;21316.03;5043673;28;20237;-67
2023/08/09 08:43:50;;;;;;;1.17;0.90;;;18.30;99.90;;;-141.84;53.52;21344.50;5043894;28;20225;-67
2023/08/09 08:46:25;;;;;;;2.88;1.08;;;18.30;99.90;;;-141.84;54.26;21285.53;5037715;28;20685;-65
2023/08/09 08:48:58;;;;;;;2.25;1.40;;;18.10;99.90;;;-141.84;56.11;21232.69;5043488;28;20316;-67
2023/08/09 08:51:30;;;;;;;1.58;1.02;;;18.00;99.90;;;-141.84;57.79;21273.34;5057627;28;20263;-66
2023/08/09 08:53:59;;;;;;;2.35;1.35;;;18.00;99.90;;;-141.84;56.93;21220.47;5059724;28;20221;-66
2023/08/09 08:56:30;;;;;;;3.45;1.40;;;18.00;99.90;;;-141.84;57.64;21192.03;5054251;28;20224;-67
2023/08/09 08:58:59;;;;;;;2.22;1.40;;;17.80;99.90;;;-141.84;57.56;21116.78;5062009;28;20236;-66
2023/08/09 09:01:30;;;;;;;3.00;1.60;;;17.60;99.90;;;-141.84;56.80;21165.59;5061448;28;20640;-67
2023/08/09 09:03:58;;;;;;;2.20;1.20;;;17.60;99.90;;;-141.84;57.92;21196.09;5061396;28;20262;-67
2023/08/09 09:06:26;;;;;;;3.05;1.38;;;17.70;99.90;;;-141.84;56.77;21238.78;5054715;28;20220;-67
2023/08/09 09:08:56;;;;;;;1.42;1.10;;;17.80;99.90;;;-141.84;54.85;21318.06;5062485;28;20271;-66
2023/08/09 09:11:24;;;;;;;2.78;1.10;;;18.10;99.90;;;-141.84;54.45;21293.69;5062616;28;20263;-66
2023/08/09 09:13:53;;;;;;;4.03;1.02;;;18.20;99.90;;;-141.84;55.49;21289.59;5061368;28;20225;-67
2023/08/09 09:16:22;;;;;;;3.13;1.15;;;18.20;99.90;;;-141.84;55.64;21250.97;5054435;28;20216;-65
2023/08/09 09:18:52;;;;;;;3.35;1.27;;;18.20;99.90;;;-141.84;53.74;21338.41;5063153;28;20204;-66
2023/08/09 09:21:20;;;;;;;2.72;1.50;;;18.30;99.90;;;-141.84;51.59;21352.63;5062161;28;20228;-67
2023/08/09 09:23:48;;;;;;;1.35;0.98;;;18.50;99.90;;;-141.84;51.07;21407.53;5062235;28;20307;-67
2023/08/09 09:26:18;;;;;;;1.40;1.27;;;18.70;99.90;;;-141.84;50.19;21401.44;5059844;28;20255;-65
2023/08/09 09:28:48;;;;;;;1.50;0.95;;;18.70;99.90;;;-141.84;50.06;21427.88;5061470;28;20321;-67
2023/08/09 09:31:18;;;;;;;2.00;1.00;;;18.80;99.90;;;-141.84;51.86;21407.53;5059771;28;20313;-66
2023/08/09 09:33:52;;;;;;;3.38;1.23;;;18.70;99.90;;;-141.84;50.21;21383.13;5062324;28;20209;-66
2023/08/09 09:36:20;;;;;;;1.63;1.10;;;18.60;99.90;;;-141.84;51.37;21366.88;5052719;28;20723;-66
2023/08/09 09:38:53;;;;;;;1.73;0.93;;;18.60;99.90;;;-141.84;49.62;21419.72;5061305;28;20216;-66
2023/08/09 09:41:22;;;;;;;2.42;1.10;;;18.60;99.90;;;-141.84;49.73;21421.75;5062124;28;20646;-67
2023/08/09 09:43:51;;;;;;;2.15;1.00;;;18.70;99.90;;;-141.84;50.74;21391.28;5061475;28;20311;-67
2023/08/09 09:46:20;;;;;;;2.65;1.00;;;18.60;99.90;;;-141.84;50.34;21370.94;5054208;28;20278;-67
2023/08/09 09:49:06;;;;;;;1.33;0.80;;;18.60;99.90;;;-141.84;49.34;21370.94;5061443;28;20205;-67
2023/08/09 09:51:36;;;;;;;1.50;0.90;;;18.50;99.90;;;-141.84;49.02;21452.25;5053631;28;20221;-66
2023/08/09 09:54:06;;;;;;;2.65;1.20;;;18.70;99.90;;;-141.84;48.80;21517.31;5051372;28;20639;-65
2023/08/09 09:56:35;;;;;;;3.22;0.98;;;19.00;99.90;;;-141.84;49.53;21515.28;5045013;28;20229;-66
2023/08/09 09:59:04;;;;;;;2.47;1.00;;;19.10;99.90;;;-141.84;48.83;21499.03;5060471;28;20278;-67
2023/08/09 10:01:39;;;;;;;1.10;0.90;;;19.00;99.90;;;-141.84;50.36;21405.50;5062106;28;20225;-66
2023/08/09 10:04:12;;;;;;;2.40;0.98;;;18.80;99.90;;;-141.84;49.27;21370.94;5061622;28;20204;-67
2023/08/09 10:06:43;;;;;;;2.22;1.00;;;18.70;99.90;;;-141.84;48.22;21377.03;5036565;28;20649;-66
2023/08/09 10:09:13;;;;;;;2.53;0.82;;;18.70;99.90;;;-141.84;48.14;21407.53;5048877;28;20264;-66
2023/08/09 10:11:45;;;;;;;3.17;1.10;;;18.60;99.90;;;-141.84;47.74;21399.41;5050444;28;20312;-66
2023/08/09 10:14:16;;;;;;;2.53;0.98;;;18.60;99.90;;;-141.84;47.72;21391.28;5050633;28;20220;-66
2023/08/09 10:16:50;;;;;;;1.92;1.00;;;18.70;99.90;;;-141.84;47.58;21468.53;5049284;28;20232;-62